createdAt,value
2017-08-29T00:02:25.875Z,17.12
2017-08-29T00:04:58.408Z,14.65
2017-08-29T00:07:30.145Z,15.77
2017-08-29T00:10:03.063Z,19.12
2017-08-29T00:12:34.126Z,11.77
2017-08-29T00:15:05.616Z,14.87
2017-08-29T00:17:35.924Z,15.52
2017-08-29T00:20:05.608Z,13.38
2017-08-29T00:22:35.698Z,15.75
2017-08-29T00:25:05.378Z,15.45
2017-08-29T00:27:36.575Z,13.10
2017-08-29T00:30:07.768Z,18.25
2017-08-29T00:32:41.140Z,13.98
2017-08-29T00:35:14.099Z,14.30
2017-08-29T00:37:46.226Z,16.48
2017-08-29T00:40:18.003Z,15.27
2017-08-29T00:42:50.357Z,17.35
2017-08-29T00:45:22.022Z,17.90
2017-08-29T00:47:53.438Z,18.52
2017-08-29T00:50:24.442Z,16.15
2017-08-29T00:52:55.928Z,13.13
2017-08-29T00:55:26.034Z,14.35
2017-08-29T00:57:56.241Z,17.65
2017-08-29T01:00:26.959Z,16.17
2017-08-29T01:02:57.057Z,17.73
2017-08-29T01:05:24.825Z,14.52
2017-08-29T01:07:52.564Z,14.93
2017-08-29T01:10:20.350Z,13.85
2017-08-29T01:12:48.144Z,14.20
2017-08-29T01:15:15.916Z,14.90
2017-08-29T01:17:43.654Z,18.90
2017-08-29T01:20:11.596Z,14.80
2017-08-29T01:22:39.375Z,14.35
2017-08-29T01:25:07.154Z,15.07
2017-08-29T01:27:34.930Z,14.80
2017-08-29T01:30:02.728Z,14.35
2017-08-29T01:32:30.502Z,14.68
2017-08-29T01:34:58.305Z,13.48
2017-08-29T01:37:26.099Z,17.42
2017-08-29T01:39:53.900Z,16.02
2017-08-29T01:42:21.684Z,12.68
2017-08-29T01:44:49.465Z,18.30
2017-08-29T01:47:17.246Z,13.07
2017-08-29T01:49:45.043Z,19.37
2017-08-29T01:52:12.826Z,17.52
2017-08-29T01:54:40.611Z,18.05
2017-08-29T01:57:08.388Z,16.00
2017-08-29T01:59:36.179Z,16.00
2017-08-29T02:02:03.930Z,18.52
2017-08-29T02:04:31.716Z,16.25
2017-08-29T02:06:59.504Z,17.05
2017-08-29T02:09:27.276Z,14.07
2017-08-29T02:11:55.056Z,15.52
2017-08-29T02:14:22.820Z,24.45
2017-08-29T02:16:50.543Z,17.27
2017-08-29T02:19:18.269Z,16.90
2017-08-29T02:21:45.986Z,18.45
2017-08-29T02:24:13.696Z,21.37
2017-08-29T02:26:41.414Z,18.55
2017-08-29T02:29:09.126Z,25.67
2017-08-29T02:31:36.846Z,19.12
2017-08-29T02:34:04.559Z,20.58
2017-08-29T02:36:32.343Z,21.42
2017-08-29T02:39:00.066Z,19.15
2017-08-29T02:41:27.782Z,17.65
2017-08-29T02:43:55.494Z,18.90
2017-08-29T02:46:23.215Z,18.37
2017-08-29T02:48:51.011Z,16.95
2017-08-29T02:51:18.733Z,28.65
2017-08-29T02:53:46.454Z,21.50
2017-08-29T02:56:14.175Z,19.33
2017-08-29T02:58:41.889Z,20.25
2017-08-29T03:01:09.610Z,21.48
2017-08-29T03:03:37.348Z,26.10
2017-08-29T03:06:05.067Z,22.85
2017-08-29T03:08:32.783Z,24.12
2017-08-29T03:11:00.504Z,26.45
2017-08-29T03:13:28.246Z,20.10
2017-08-29T03:15:56.026Z,22.45
2017-08-29T03:18:23.764Z,20.60
2017-08-29T03:20:51.489Z,28.87
2017-08-29T03:23:19.208Z,20.58
2017-08-29T03:25:46.922Z,27.15
2017-08-29T03:28:14.635Z,26.60
2017-08-29T03:30:43.144Z,22.30
2017-08-29T03:33:10.858Z,19.75
2017-08-29T03:35:38.579Z,23.92
2017-08-29T03:38:06.291Z,16.98
2017-08-29T03:40:34.005Z,17.48
2017-08-29T03:43:01.734Z,23.50
2017-08-29T03:45:29.454Z,27.62
2017-08-29T03:47:57.201Z,19.35
2017-08-29T03:50:24.926Z,18.15
2017-08-29T03:52:52.651Z,16.10
2017-08-29T03:55:20.370Z,15.60
2017-08-29T03:57:48.087Z,21.40
2017-08-29T04:00:15.866Z,12.25
2017-08-29T04:02:43.582Z,17.98
2017-08-29T04:05:11.299Z,16.15
2017-08-29T04:07:39.013Z,17.80
2017-08-29T04:10:06.751Z,17.17
2017-08-29T04:12:34.500Z,20.85
2017-08-29T04:15:02.251Z,16.02
2017-08-29T04:17:29.990Z,17.42
2017-08-29T04:19:57.702Z,20.52
2017-08-29T04:22:25.438Z,19.08
2017-08-29T04:25:03.458Z,20.88
2017-08-29T04:27:31.203Z,21.55
2017-08-29T04:29:58.979Z,17.10
2017-08-29T04:32:26.711Z,21.25
2017-08-29T04:34:54.439Z,20.55
2017-08-29T04:37:22.179Z,21.98
2017-08-29T04:39:50.839Z,16.30
2017-08-29T04:42:18.578Z,15.70
2017-08-29T04:44:46.314Z,18.90
2017-08-29T04:47:14.040Z,18.17
2017-08-29T04:49:41.767Z,16.42
2017-08-29T04:52:09.535Z,18.95
2017-08-29T04:54:37.322Z,14.00
2017-08-29T04:57:05.071Z,15.13
2017-08-29T04:59:32.835Z,17.95
2017-08-29T05:02:00.667Z,25.45
2017-08-29T05:04:28.451Z,15.80
2017-08-29T05:06:56.203Z,18.25
2017-08-29T05:09:23.979Z,16.52
2017-08-29T05:11:51.747Z,22.50
2017-08-29T05:14:19.471Z,16.10
2017-08-29T05:16:47.204Z,16.90
2017-08-29T05:19:14.929Z,15.75
2017-08-29T05:21:42.656Z,14.23
2017-08-29T05:24:10.381Z,13.75
2017-08-29T05:26:38.104Z,13.52
2017-08-29T05:29:05.828Z,14.30
2017-08-29T05:31:33.550Z,13.45
2017-08-29T05:34:01.290Z,15.93
2017-08-29T05:36:29.031Z,18.23
2017-08-29T05:38:57.357Z,11.82
2017-08-29T05:41:25.095Z,12.70
2017-08-29T05:43:52.836Z,11.12
2017-08-29T05:46:20.566Z,15.55
2017-08-29T05:48:48.299Z,17.00
2017-08-29T05:51:16.056Z,13.70
2017-08-29T05:53:43.807Z,14.32
2017-08-29T05:56:11.595Z,17.70
2017-08-29T05:58:39.325Z,12.88
2017-08-29T06:01:07.097Z,14.13
2017-08-29T06:03:34.858Z,15.15
2017-08-29T06:06:02.609Z,11.20
2017-08-29T06:08:30.400Z,18.67
2017-08-29T06:10:58.191Z,16.02
2017-08-29T06:13:25.922Z,13.25
2017-08-29T06:15:53.670Z,13.65
2017-08-29T06:18:21.472Z,18.20
2017-08-29T06:20:49.222Z,11.07
2017-08-29T06:23:16.950Z,13.80
2017-08-29T06:25:44.683Z,18.05
2017-08-29T06:28:12.411Z,14.35
2017-08-29T06:30:40.138Z,12.37
2017-08-29T06:33:07.882Z,14.45
2017-08-29T06:35:35.603Z,12.95
2017-08-29T06:38:03.346Z,9.55
2017-08-29T06:40:31.065Z,11.23
2017-08-29T06:42:58.787Z,13.57
2017-08-29T06:45:26.540Z,9.70
2017-08-29T06:47:54.264Z,14.02
2017-08-29T06:50:21.974Z,9.98
2017-08-29T06:52:49.704Z,10.02
2017-08-29T06:55:17.442Z,6.95
2017-08-29T06:57:45.171Z,7.60
2017-08-29T07:00:12.899Z,9.50
2017-08-29T07:02:40.650Z,20.20
2017-08-29T07:05:08.383Z,17.23
2017-08-29T07:07:36.167Z,9.65
2017-08-29T07:10:03.914Z,7.17
2017-08-29T07:12:31.716Z,5.83
2017-08-29T07:14:59.507Z,7.57
2017-08-29T07:17:27.250Z,10.43
2017-08-29T07:19:54.989Z,6.50
2017-08-29T07:22:22.715Z,9.47
2017-08-29T07:24:50.491Z,5.37
2017-08-29T07:27:18.247Z,5.27
2017-08-29T07:29:45.991Z,5.40
2017-08-29T07:32:13.714Z,9.30
2017-08-29T07:34:41.458Z,10.33
2017-08-29T07:37:09.183Z,6.97
2017-08-29T07:39:36.919Z,7.50
2017-08-29T07:42:04.648Z,6.40
2017-08-29T07:44:32.386Z,6.13
2017-08-29T07:47:00.136Z,13.27
2017-08-29T07:49:27.969Z,8.00
2017-08-29T07:51:55.707Z,6.87
2017-08-29T07:54:23.470Z,8.20
2017-08-29T07:56:51.207Z,6.35
2017-08-29T07:59:18.948Z,7.45
2017-08-29T08:01:46.687Z,10.50
2017-08-29T08:04:14.424Z,6.53
2017-08-29T08:06:42.154Z,9.85
2017-08-29T08:09:09.907Z,10.60
2017-08-29T08:11:37.658Z,7.15
2017-08-29T08:14:05.395Z,9.20
2017-08-29T08:16:33.172Z,11.63
2017-08-29T08:19:00.916Z,9.93
2017-08-29T08:21:28.643Z,11.40
2017-08-29T08:23:56.380Z,12.88
2017-08-29T08:26:24.100Z,9.95
2017-08-29T08:28:51.890Z,9.63
2017-08-29T08:31:19.618Z,12.32
2017-08-29T08:33:47.369Z,10.27
2017-08-29T08:36:15.160Z,10.45
2017-08-29T08:38:42.888Z,9.55
2017-08-29T08:41:10.619Z,13.93
2017-08-29T08:43:38.347Z,10.30
2017-08-29T08:46:06.089Z,10.38
2017-08-29T08:48:33.816Z,22.62
2017-08-29T08:51:01.589Z,11.00
2017-08-29T08:53:29.334Z,10.27
2017-08-29T08:55:57.071Z,10.90
2017-08-29T08:58:24.838Z,7.47
2017-08-29T09:00:52.576Z,8.52
2017-08-29T09:03:20.391Z,7.97
2017-08-29T09:05:48.131Z,11.77
2017-08-29T09:08:15.854Z,9.73
2017-08-29T09:10:43.577Z,9.52
2017-08-29T09:13:11.306Z,8.35
2017-08-29T09:15:39.047Z,9.60
2017-08-29T09:18:06.783Z,10.27
2017-08-29T09:20:34.523Z,11.18
2017-08-29T09:23:02.261Z,10.88
2017-08-29T09:25:30.010Z,10.20
2017-08-29T09:27:57.731Z,9.50
2017-08-29T09:30:25.473Z,9.25
2017-08-29T09:32:53.211Z,10.80
2017-08-29T09:35:20.939Z,6.85
2017-08-29T09:37:48.684Z,11.25
2017-08-29T09:40:16.414Z,8.40
2017-08-29T09:42:44.159Z,8.13
2017-08-29T09:45:11.886Z,8.35
2017-08-29T09:47:39.619Z,9.93
2017-08-29T09:50:07.344Z,8.68
2017-08-29T09:52:35.075Z,8.93
2017-08-29T09:55:02.855Z,7.03
2017-08-29T09:57:30.598Z,6.75
2017-08-29T09:59:58.354Z,9.40
2017-08-29T10:02:26.118Z,10.52
2017-08-29T10:04:53.862Z,7.35
2017-08-29T10:07:21.629Z,8.43
2017-08-29T10:09:49.362Z,8.38
2017-08-29T10:12:17.103Z,8.25
2017-08-29T10:14:44.835Z,9.05
2017-08-29T10:17:12.583Z,6.40
2017-08-29T10:19:40.307Z,8.95
2017-08-29T10:22:08.045Z,9.80
2017-08-29T10:24:35.775Z,8.85
2017-08-29T10:27:03.532Z,9.57
2017-08-29T10:29:31.267Z,8.00
2017-08-29T10:31:59.067Z,10.07
2017-08-29T10:34:26.897Z,6.78
2017-08-29T10:36:54.667Z,8.73
2017-08-29T10:39:22.394Z,7.90
2017-08-29T10:41:50.136Z,8.38
2017-08-29T10:44:17.881Z,6.80
2017-08-29T10:46:45.617Z,9.88
2017-08-29T10:49:13.354Z,6.50
2017-08-29T10:51:41.080Z,7.18
2017-08-29T10:54:08.819Z,7.83
2017-08-29T10:56:36.558Z,10.93
2017-08-29T10:59:04.306Z,6.30
2017-08-29T11:01:32.072Z,11.37
2017-08-29T11:03:59.799Z,6.20
2017-08-29T11:06:27.560Z,8.37
2017-08-29T11:08:55.307Z,7.20
2017-08-29T11:11:23.071Z,6.65
2017-08-29T11:13:50.817Z,7.05
2017-08-29T11:16:18.559Z,5.70
2017-08-29T11:18:46.285Z,9.68
2017-08-29T11:21:14.042Z,7.20
2017-08-29T11:23:41.791Z,7.00
2017-08-29T11:26:09.569Z,8.20
2017-08-29T11:28:37.335Z,6.87
2017-08-29T11:31:05.141Z,11.30
2017-08-29T11:33:32.927Z,9.18
2017-08-29T11:36:00.714Z,8.43
2017-08-29T11:38:28.499Z,10.00
2017-08-29T11:40:56.282Z,8.07
2017-08-29T11:43:24.110Z,7.03
2017-08-29T11:45:51.890Z,7.75
2017-08-29T11:48:19.672Z,8.50
2017-08-29T11:50:47.462Z,8.52
2017-08-29T11:53:15.276Z,7.85
2017-08-29T11:55:43.071Z,12.98
2017-08-29T11:58:10.839Z,7.12
2017-08-29T12:00:38.617Z,8.63
2017-08-29T12:03:06.385Z,8.57
2017-08-29T12:05:34.180Z,8.05
2017-08-29T12:08:01.951Z,7.07
2017-08-29T12:10:29.718Z,11.57
2017-08-29T12:12:57.454Z,13.13
2017-08-29T12:15:25.193Z,11.87
2017-08-29T12:17:52.942Z,7.15
2017-08-29T12:20:20.710Z,10.82
2017-08-29T12:22:48.434Z,7.22
2017-08-29T12:25:16.164Z,7.57
2017-08-29T12:27:43.890Z,14.27
2017-08-29T12:30:11.622Z,8.35
2017-08-29T12:32:39.355Z,9.17
2017-08-29T12:35:07.099Z,11.97
2017-08-29T12:37:34.835Z,7.10
2017-08-29T12:40:02.581Z,7.70
2017-08-29T12:42:30.311Z,7.50
2017-08-29T12:44:58.095Z,8.40
2017-08-29T12:47:25.868Z,7.23
2017-08-29T12:49:53.595Z,7.77
2017-08-29T12:52:21.319Z,10.40
2017-08-29T12:54:49.091Z,10.03
2017-08-29T12:57:16.807Z,8.23
2017-08-29T12:59:44.542Z,7.40
2017-08-29T13:02:12.258Z,8.13
2017-08-29T13:04:39.978Z,9.83
2017-08-29T13:07:07.706Z,9.37
2017-08-29T13:09:35.432Z,6.57
2017-08-29T13:12:03.208Z,8.80
2017-08-29T13:14:30.994Z,13.03
2017-08-29T13:16:58.712Z,8.27
2017-08-29T13:19:26.441Z,8.73
2017-08-29T13:21:54.203Z,8.57
2017-08-29T13:24:21.967Z,8.13
2017-08-29T13:26:49.707Z,9.57
2017-08-29T13:29:17.464Z,9.23
2017-08-29T13:31:45.196Z,8.52
2017-08-29T13:34:12.934Z,7.97
2017-08-29T13:36:40.662Z,9.37
2017-08-29T13:39:08.383Z,9.03
2017-08-29T13:41:36.107Z,10.23
2017-08-29T13:44:03.846Z,8.43
2017-08-29T13:46:31.570Z,11.70
2017-08-29T13:48:59.291Z,7.90
2017-08-29T13:51:27.020Z,8.10
2017-08-29T13:53:54.743Z,9.50
2017-08-29T13:56:22.470Z,7.30
2017-08-29T13:58:50.204Z,9.60
2017-08-29T14:01:17.946Z,9.40
2017-08-29T14:03:45.674Z,8.40
2017-08-29T14:06:13.436Z,8.90
2017-08-29T14:08:41.185Z,9.10
2017-08-29T14:11:08.994Z,8.10
2017-08-29T14:13:36.722Z,11.27
2017-08-29T14:16:04.450Z,8.37
2017-08-29T14:18:32.170Z,9.00
2017-08-29T14:20:59.910Z,7.83
2017-08-29T14:23:27.647Z,7.73
2017-08-29T14:25:55.385Z,8.57
2017-08-29T14:28:23.137Z,7.05
2017-08-29T14:30:50.872Z,7.15
2017-08-29T14:33:18.595Z,7.27
2017-08-29T14:35:46.327Z,10.43
2017-08-29T14:38:14.061Z,9.07
2017-08-29T14:40:41.799Z,8.95
2017-08-29T14:43:09.538Z,8.48
2017-08-29T14:45:37.279Z,8.25
2017-08-29T14:48:30.798Z,9.40
2017-08-29T14:50:58.554Z,10.02
2017-08-29T14:53:26.283Z,8.98
2017-08-29T14:55:54.015Z,7.75
2017-08-29T14:58:21.743Z,13.62
2017-08-29T15:00:49.480Z,8.50
2017-08-29T15:03:17.231Z,10.85
2017-08-29T15:05:44.962Z,10.18
2017-08-29T15:08:12.702Z,8.18
2017-08-29T15:10:40.426Z,10.82
2017-08-29T15:13:08.158Z,9.05
2017-08-29T15:15:35.933Z,8.82
2017-08-29T15:18:03.669Z,11.23
2017-08-29T15:20:31.400Z,7.90
2017-08-29T15:22:59.131Z,11.60
2017-08-29T15:25:26.865Z,9.88
2017-08-29T15:27:54.607Z,11.45
2017-08-29T15:30:22.351Z,11.10
2017-08-29T15:32:50.089Z,11.50
2017-08-29T15:35:17.818Z,9.43
2017-08-29T15:37:45.561Z,12.63
2017-08-29T15:40:13.292Z,8.82
2017-08-29T15:42:41.022Z,10.10
2017-08-29T15:45:08.760Z,9.25
2017-08-29T15:47:36.482Z,10.13
2017-08-29T15:50:04.239Z,15.85
2017-08-29T15:52:31.995Z,11.25
2017-08-29T15:54:59.755Z,10.77
2017-08-29T15:57:27.486Z,9.70
2017-08-29T15:59:56.111Z,9.02
2017-08-29T16:02:23.851Z,11.65
2017-08-29T16:04:52.350Z,12.30
2017-08-29T16:07:20.095Z,12.20
2017-08-29T16:09:48.264Z,8.43
2017-08-29T16:12:16.094Z,10.23
2017-08-29T16:14:43.822Z,9.05
2017-08-29T16:17:11.560Z,18.27
2017-08-29T16:19:39.303Z,8.02
2017-08-29T16:22:07.038Z,8.95
2017-08-29T16:24:34.811Z,12.63
2017-08-29T16:27:02.575Z,11.12
2017-08-29T16:29:30.335Z,18.15
2017-08-29T16:31:58.123Z,18.27
2017-08-29T16:34:25.876Z,17.35
2017-08-29T16:36:53.611Z,18.30
2017-08-29T16:39:21.351Z,10.93
2017-08-29T16:41:49.078Z,14.10
2017-08-29T16:44:16.811Z,13.40
2017-08-29T16:46:44.539Z,14.80
2017-08-29T16:49:12.274Z,17.67
2017-08-29T16:51:40.006Z,12.90
2017-08-29T16:54:07.742Z,20.40
2017-08-29T16:56:35.482Z,16.58
2017-08-29T16:59:03.232Z,11.73
2017-08-29T17:01:30.972Z,11.55
2017-08-29T17:03:58.710Z,11.65
2017-08-29T17:06:26.459Z,10.88
2017-08-29T17:08:54.202Z,16.58
2017-08-29T17:11:21.976Z,16.80
2017-08-29T17:13:49.727Z,20.90
2017-08-29T17:16:17.463Z,27.67
2017-08-29T17:18:45.203Z,11.35
2017-08-29T17:21:12.926Z,38.22
2017-08-29T17:23:40.658Z,58.97
2017-08-29T17:26:08.405Z,32.30
2017-08-29T17:28:36.139Z,40.12
2017-08-29T17:31:03.873Z,40.40
2017-08-29T17:33:31.610Z,34.65
2017-08-29T17:35:59.348Z,32.95
2017-08-29T17:38:27.096Z,20.45
2017-08-29T17:40:55.595Z,14.13
2017-08-29T17:43:23.330Z,14.38
2017-08-29T17:45:51.063Z,11.50
2017-08-29T17:48:18.814Z,12.10
2017-08-29T17:50:46.551Z,15.10
2017-08-29T17:53:14.279Z,15.00
2017-08-29T17:55:42.015Z,14.27
2017-08-29T17:58:09.760Z,14.77
2017-08-29T18:00:37.544Z,11.55
2017-08-29T18:03:05.294Z,11.35
2017-08-29T18:05:33.067Z,12.65
2017-08-29T18:08:00.797Z,11.23
2017-08-29T18:10:28.526Z,13.32
2017-08-29T18:12:56.262Z,12.80
2017-08-29T18:15:24.046Z,12.52
2017-08-29T18:17:51.786Z,14.48
2017-08-29T18:20:19.550Z,13.60
2017-08-29T18:22:47.283Z,10.93
2017-08-29T18:25:15.018Z,15.43
2017-08-29T18:27:42.760Z,13.38
2017-08-29T18:30:10.503Z,12.02
2017-08-29T18:32:38.251Z,16.45
2017-08-29T18:35:05.996Z,13.40
2017-08-29T18:37:33.738Z,13.05
2017-08-29T18:40:01.466Z,12.77
2017-08-29T18:42:29.264Z,16.17
2017-08-29T18:44:57.002Z,12.23
2017-08-29T18:47:24.770Z,16.33
2017-08-29T18:49:52.504Z,13.43
2017-08-29T18:52:20.236Z,14.40
2017-08-29T18:54:47.986Z,16.05
2017-08-29T18:57:15.707Z,13.62
2017-08-29T18:59:43.487Z,18.83
2017-08-29T19:02:11.222Z,14.85
2017-08-29T19:04:38.948Z,15.25
2017-08-29T19:07:06.688Z,13.02
2017-08-29T19:09:34.552Z,13.68
2017-08-29T19:12:02.282Z,13.10
2017-08-29T19:14:30.043Z,17.52
2017-08-29T19:16:57.791Z,17.05
2017-08-29T19:19:25.530Z,15.02
2017-08-29T19:21:53.375Z,13.38
2017-08-29T19:24:21.242Z,15.77
2017-08-29T19:26:48.959Z,13.48
2017-08-29T19:29:16.817Z,27.62
2017-08-29T19:31:44.595Z,15.23
2017-08-29T19:34:12.334Z,14.07
2017-08-29T19:36:40.067Z,18.25
2017-08-29T19:39:07.807Z,16.48
2017-08-29T19:41:35.556Z,13.25
2017-08-29T19:44:03.315Z,15.23
2017-08-29T19:46:31.056Z,16.15
2017-08-29T19:48:58.784Z,13.77
2017-08-29T19:51:26.547Z,17.20
2017-08-29T19:53:54.266Z,19.55
2017-08-29T19:56:21.992Z,19.83
2017-08-29T19:58:49.720Z,16.70
2017-08-29T20:01:17.438Z,18.87
2017-08-29T20:03:45.167Z,15.18
2017-08-29T20:06:12.941Z,17.42
2017-08-29T20:08:40.675Z,15.30
2017-08-29T20:11:08.405Z,18.67
2017-08-29T20:13:36.132Z,15.13
2017-08-29T20:16:03.883Z,20.27
2017-08-29T20:18:31.598Z,17.65
2017-08-29T20:20:59.327Z,21.45
2017-08-29T20:23:27.082Z,19.20
2017-08-29T20:25:54.797Z,16.20
2017-08-29T20:28:22.563Z,16.37
2017-08-29T20:30:50.310Z,15.60
2017-08-29T20:33:18.033Z,20.20
2017-08-29T20:35:46.070Z,17.27
2017-08-29T20:38:13.794Z,18.87
2017-08-29T20:40:42.271Z,16.87
2017-08-29T20:43:10.032Z,15.05
2017-08-29T20:45:37.760Z,20.12
2017-08-29T20:48:05.495Z,19.33
2017-08-29T20:50:33.221Z,20.58
2017-08-29T20:53:00.946Z,17.20
2017-08-29T20:55:28.675Z,20.50
2017-08-29T20:57:56.415Z,19.37
2017-08-29T21:00:24.153Z,19.50
2017-08-29T21:02:51.890Z,16.77
2017-08-29T21:05:19.619Z,20.02
2017-08-29T21:07:47.371Z,18.25
2017-08-29T21:10:15.107Z,17.20
2017-08-29T21:12:42.850Z,22.10
2017-08-29T21:15:10.578Z,18.73
2017-08-29T21:17:38.298Z,19.12
2017-08-29T21:20:06.039Z,19.10
2017-08-29T21:22:33.753Z,19.20
2017-08-29T21:25:01.484Z,21.08
2017-08-29T21:27:29.216Z,17.00
2017-08-29T21:29:56.949Z,20.77
2017-08-29T21:32:24.697Z,19.70
2017-08-29T21:34:52.548Z,18.33
2017-08-29T21:37:20.302Z,19.52
2017-08-29T21:39:48.032Z,24.55
2017-08-29T21:42:15.809Z,20.67
2017-08-29T21:44:44.991Z,21.67
2017-08-29T21:47:12.750Z,21.25
2017-08-29T21:49:40.493Z,22.35
2017-08-29T21:52:08.223Z,18.62
2017-08-29T21:54:35.959Z,18.20
2017-08-29T21:57:03.679Z,18.67
2017-08-29T21:59:31.410Z,19.35
2017-08-29T22:01:59.164Z,16.45
2017-08-29T22:04:26.894Z,17.27
2017-08-29T22:06:54.614Z,17.23
2017-08-29T22:09:22.343Z,18.23
2017-08-29T22:11:50.093Z,21.37
2017-08-29T22:14:17.907Z,18.80
2017-08-29T22:16:45.647Z,23.75
2017-08-29T22:19:13.603Z,21.37
2017-08-29T22:21:41.335Z,18.85
2017-08-29T22:24:09.074Z,19.83
2017-08-29T22:26:36.797Z,26.00
2017-08-29T22:29:04.528Z,21.77
2017-08-29T22:31:32.265Z,23.83
2017-08-29T22:33:59.990Z,21.52
2017-08-29T22:36:27.727Z,17.87
2017-08-29T22:38:55.450Z,24.40
2017-08-29T22:41:23.215Z,21.17
2017-08-29T22:43:50.947Z,22.23
2017-08-29T22:46:18.707Z,17.45
2017-08-29T22:48:46.427Z,20.33
2017-08-29T22:51:14.172Z,20.10
2017-08-29T22:53:41.899Z,22.02
2017-08-29T22:56:09.668Z,20.02
2017-08-29T22:58:37.395Z,17.00
2017-08-29T23:01:05.199Z,20.30
2017-08-29T23:03:32.950Z,19.75
2017-08-29T23:06:00.722Z,27.58
2017-08-29T23:08:28.482Z,19.12
2017-08-29T23:10:56.267Z,19.73
2017-08-29T23:13:24.014Z,24.08
2017-08-29T23:15:51.751Z,20.62
2017-08-29T23:18:19.491Z,21.70
2017-08-29T23:20:47.232Z,21.42
2017-08-29T23:23:14.975Z,20.35
2017-08-29T23:25:42.724Z,18.52
2017-08-29T23:28:10.483Z,24.50
2017-08-29T23:30:38.233Z,27.55
2017-08-29T23:33:06.022Z,19.70
2017-08-29T23:35:33.758Z,25.75
2017-08-29T23:38:01.503Z,21.15
2017-08-29T23:40:29.270Z,26.00
2017-08-29T23:42:57.002Z,18.10
2017-08-29T23:45:24.743Z,19.30
2017-08-29T23:47:52.504Z,24.42
2017-08-29T23:50:20.290Z,22.37
2017-08-29T23:52:48.027Z,20.10
2017-08-29T23:55:15.766Z,26.27
2017-08-29T23:57:43.490Z,20.25
